sensor_id;sensor_type;location;lat;lon;timestamp;pressure;altitude;pressure_sealevel;temperature;humidity
68656;BME280;55638;51.122;13.606;2022-09-12T00:01:02;100310.44;;;12.84;62.02
68656;BME280;55638;51.122;13.606;2022-09-12T00:02:34;100315.00;;;12.84;61.91
68656;BME280;55638;51.122;13.606;2022-09-12T00:04:06;100307.03;;;12.82;62.04
68656;BME280;55638;51.122;13.606;2022-09-12T00:05:41;100301.75;;;12.81;62.04
68656;BME280;55638;51.122;13.606;2022-09-12T00:07:14;100308.19;;;12.80;62.03
68656;BME280;55638;51.122;13.606;2022-09-12T00:08:45;100311.06;;;12.78;61.73
68656;BME280;55638;51.122;13.606;2022-09-12T00:10:17;100308.47;;;12.77;61.96
68656;BME280;55638;51.122;13.606;2022-09-12T00:11:49;100299.63;;;12.75;61.81
68656;BME280;55638;51.122;13.606;2022-09-12T00:13:21;100305.22;;;12.73;61.86
68656;BME280;55638;51.122;13.606;2022-09-12T00:14:53;100308.22;;;12.70;62.16
68656;BME280;55638;51.122;13.606;2022-09-12T00:16:25;100301.09;;;12.69;62.05
68656;BME280;55638;51.122;13.606;2022-09-12T00:17:57;100303.09;;;12.67;62.19
68656;BME280;55638;51.122;13.606;2022-09-12T00:19:29;100304.22;;;12.64;62.21
68656;BME280;55638;51.122;13.606;2022-09-12T00:21:01;100306.25;;;12.62;62.13
68656;BME280;55638;51.122;13.606;2022-09-12T00:22:34;100308.25;;;12.60;62.18
68656;BME280;55638;51.122;13.606;2022-09-12T00:24:06;100313.81;;;12.59;62.13
68656;BME280;55638;51.122;13.606;2022-09-12T00:25:42;100303.09;;;12.57;62.17
68656;BME280;55638;51.122;13.606;2022-09-12T00:27:14;100299.09;;;12.52;61.95
68656;BME280;55638;51.122;13.606;2022-09-12T00:28:46;100302.81;;;12.51;61.81
68656;BME280;55638;51.122;13.606;2022-09-12T00:30:18;100308.50;;;12.47;62.02
68656;BME280;55638;51.122;13.606;2022-09-12T00:31:49;100314.22;;;12.44;62.02
68656;BME280;55638;51.122;13.606;2022-09-12T00:33:21;100307.41;;;12.40;62.03
68656;BME280;55638;51.122;13.606;2022-09-12T00:34:53;100304.81;;;12.39;61.83
68656;BME280;55638;51.122;13.606;2022-09-12T00:36:25;100307.97;;;12.34;61.91
68656;BME280;55638;51.122;13.606;2022-09-12T00:37:58;100302.00;;;12.31;61.98
68656;BME280;55638;51.122;13.606;2022-09-12T00:39:30;100308.72;;;12.27;62.10
68656;BME280;55638;51.122;13.606;2022-09-12T00:41:01;100305.44;;;12.23;61.86
68656;BME280;55638;51.122;13.606;2022-09-12T00:42:33;100300.44;;;12.18;61.84
68656;BME280;55638;51.122;13.606;2022-09-12T00:45:42;100294.91;;;12.10;61.73
68656;BME280;55638;51.122;13.606;2022-09-12T00:48:48;100293.75;;;12.03;61.67
68656;BME280;55638;51.122;13.606;2022-09-12T00:50:22;100303.16;;;11.99;61.80
68656;BME280;55638;51.122;13.606;2022-09-12T00:51:56;100292.75;;;11.94;61.68
68656;BME280;55638;51.122;13.606;2022-09-12T00:53:30;100294.06;;;11.90;61.85
68656;BME280;55638;51.122;13.606;2022-09-12T00:55:25;100293.44;;;11.87;61.99
68656;BME280;55638;51.122;13.606;2022-09-12T00:56:55;100288.47;;;11.82;61.83
68656;BME280;55638;51.122;13.606;2022-09-12T00:58:29;100297.72;;;11.79;62.18
68656;BME280;55638;51.122;13.606;2022-09-12T01:00:06;100292.59;;;11.76;62.11
68656;BME280;55638;51.122;13.606;2022-09-12T01:01:42;100290.03;;;11.75;62.16
68656;BME280;55638;51.122;13.606;2022-09-12T01:03:16;100293.03;;;11.72;62.26
68656;BME280;55638;51.122;13.606;2022-09-12T01:04:49;100296.75;;;11.71;62.41
68656;BME280;55638;51.122;13.606;2022-09-12T01:06:24;100292.31;;;11.70;62.58
68656;BME280;55638;51.122;13.606;2022-09-12T01:07:56;100287.06;;;11.68;62.49
68656;BME280;55638;51.122;13.606;2022-09-12T01:09:28;100287.06;;;11.68;62.49
68656;BME280;55638;51.122;13.606;2022-09-12T01:10:59;100286.19;;;11.68;62.58
68656;BME280;55638;51.122;13.606;2022-09-12T01:12:31;100286.19;;;11.68;62.62
68656;BME280;55638;51.122;13.606;2022-09-12T01:14:04;100288.91;;;11.68;62.67
68656;BME280;55638;51.122;13.606;2022-09-12T01:15:36;100285.19;;;11.69;62.54
68656;BME280;55638;51.122;13.606;2022-09-12T01:17:12;100287.06;;;11.68;62.72
68656;BME280;55638;51.122;13.606;2022-09-12T01:20:34;100290.44;;;11.70;62.92
68656;BME280;55638;51.122;13.606;2022-09-12T01:30:25;100287.91;;;11.78;63.21
68656;BME280;55638;51.122;13.606;2022-09-12T01:33:54;100284.06;;;11.81;63.06
68656;BME280;55638;51.122;13.606;2022-09-12T01:37:15;100281.22;;;11.83;63.17
68656;BME280;55638;51.122;13.606;2022-09-12T01:38:58;100277.53;;;11.84;63.38
68656;BME280;55638;51.122;13.606;2022-09-12T01:40:33;100285.50;;;11.85;63.16
68656;BME280;55638;51.122;13.606;2022-09-12T01:45:42;100276.09;;;11.89;63.20
68656;BME280;55638;51.122;13.606;2022-09-12T01:49:06;100273.09;;;11.92;62.96
68656;BME280;55638;51.122;13.606;2022-09-12T01:51:24;100274.78;;;11.93;63.16
68656;BME280;55638;51.122;13.606;2022-09-12T01:52:37;100272.09;;;11.93;63.39
68656;BME280;55638;51.122;13.606;2022-09-12T01:54:15;100274.78;;;11.93;63.08
68656;BME280;55638;51.122;13.606;2022-09-12T01:55:51;100273.81;;;11.94;63.23
68656;BME280;55638;51.122;13.606;2022-09-12T01:57:33;100279.06;;;11.96;63.29
68656;BME280;55638;51.122;13.606;2022-09-12T01:59:17;100273.66;;;11.96;63.42
68656;BME280;55638;51.122;13.606;2022-09-12T02:00:54;100270.94;;;11.96;63.19
68656;BME280;55638;51.122;13.606;2022-09-12T02:02:34;100281.50;;;11.99;63.46
68656;BME280;55638;51.122;13.606;2022-09-12T02:04:09;100276.06;;;11.99;63.24
68656;BME280;55638;51.122;13.606;2022-09-12T02:05:52;100271.50;;;11.99;63.42
68656;BME280;55638;51.122;13.606;2022-09-12T02:09:09;100268.69;;;12.01;63.38
68656;BME280;55638;51.122;13.606;2022-09-12T02:10:43;100265.13;;;12.00;63.49
68656;BME280;55638;51.122;13.606;2022-09-12T02:12:16;100264.97;;;12.02;63.45
68656;BME280;55638;51.122;13.606;2022-09-12T02:13:53;100261.13;;;12.05;63.17
68656;BME280;55638;51.122;13.606;2022-09-12T02:15:28;100267.53;;;12.04;63.25
68656;BME280;55638;51.122;13.606;2022-09-12T02:18:34;100263.84;;;12.05;63.47
68656;BME280;55638;51.122;13.606;2022-09-12T02:20:13;100261.13;;;12.05;63.47
68656;BME280;55638;51.122;13.606;2022-09-12T02:22:02;100266.53;;;12.05;63.44
68656;BME280;55638;51.122;13.606;2022-09-12T02:23:36;100263.84;;;12.05;63.40
68656;BME280;55638;51.122;13.606;2022-09-12T02:25:08;100264.69;;;12.05;63.30
68656;BME280;55638;51.122;13.606;2022-09-12T02:26:43;100263.84;;;12.05;63.32
68656;BME280;55638;51.122;13.606;2022-09-12T02:28:19;100259.28;;;12.05;63.20
68656;BME280;55638;51.122;13.606;2022-09-12T02:29:52;100252.00;;;12.06;63.31
68656;BME280;55638;51.122;13.606;2022-09-12T02:31:34;100257.41;;;12.06;63.47
68656;BME280;55638;51.122;13.606;2022-09-12T02:33:22;100263.84;;;12.05;63.38
68656;BME280;55638;51.122;13.606;2022-09-12T02:35:19;100254.00;;;12.04;63.40
68656;BME280;55638;51.122;13.606;2022-09-12T02:36:58;100248.59;;;12.04;63.63
68656;BME280;55638;51.122;13.606;2022-09-12T02:38:43;100249.44;;;12.04;63.27
68656;BME280;55638;51.122;13.606;2022-09-12T02:40:16;100248.59;;;12.04;63.32
68656;BME280;55638;51.122;13.606;2022-09-12T02:41:51;100251.31;;;12.04;63.19
68656;BME280;55638;51.122;13.606;2022-09-12T02:43:26;100244.16;;;12.02;63.35
68656;BME280;55638;51.122;13.606;2022-09-12T02:44:57;100246.88;;;12.02;63.25
68656;BME280;55638;51.122;13.606;2022-09-12T02:46:37;100245.88;;;12.04;63.27
68656;BME280;55638;51.122;13.606;2022-09-12T02:49:44;100241.63;;;12.01;63.50
68656;BME280;55638;51.122;13.606;2022-09-12T02:51:15;100252.44;;;12.01;63.72
68656;BME280;55638;51.122;13.606;2022-09-12T02:52:51;100246.19;;;12.00;63.39
68656;BME280;55638;51.122;13.606;2022-09-12T02:54:30;100251.59;;;12.00;63.49
68656;BME280;55638;51.122;13.606;2022-09-12T02:56:03;100251.59;;;12.00;63.51
68656;BME280;55638;51.122;13.606;2022-09-12T02:57:36;100247.88;;;12.01;63.51
68656;BME280;55638;51.122;13.606;2022-09-12T02:59:09;100248.88;;;12.00;63.35
68656;BME280;55638;51.122;13.606;2022-09-12T03:00:48;100250.75;;;12.00;63.46
68656;BME280;55638;51.122;13.606;2022-09-12T03:04:13;100257.97;;;11.99;63.57
68656;BME280;55638;51.122;13.606;2022-09-12T03:09:13;100263.69;;;11.96;63.56
68656;BME280;55638;51.122;13.606;2022-09-12T03:11:04;100263.69;;;11.96;63.39
68656;BME280;55638;51.122;13.606;2022-09-12T03:19:24;100256.16;;;11.90;63.33
68656;BME280;55638;51.122;13.606;2022-09-12T03:23:07;100252.72;;;11.88;63.34
68656;BME280;55638;51.122;13.606;2022-09-12T03:24:31;100251.88;;;11.88;63.06
68656;BME280;55638;51.122;13.606;2022-09-12T03:27:37;100260.13;;;11.86;63.22
68656;BME280;55638;51.122;13.606;2022-09-12T03:29:11;100256.72;;;11.84;63.41
68656;BME280;55638;51.122;13.606;2022-09-12T03:30:45;100258.44;;;11.85;63.51
68656;BME280;55638;51.122;13.606;2022-09-12T03:32:17;100262.84;;;11.86;63.24
68656;BME280;55638;51.122;13.606;2022-09-12T03:33:48;100254.72;;;11.86;63.20
68656;BME280;55638;51.122;13.606;2022-09-12T03:35:21;100253.00;;;11.85;63.60
68656;BME280;55638;51.122;13.606;2022-09-12T03:36:53;100253.00;;;11.85;63.43
68656;BME280;55638;51.122;13.606;2022-09-12T03:38:25;100249.31;;;11.86;63.51
68656;BME280;55638;51.122;13.606;2022-09-12T03:39:57;100254.72;;;11.86;63.62
68656;BME280;55638;51.122;13.606;2022-09-12T03:41:29;100250.31;;;11.85;63.73
68656;BME280;55638;51.122;13.606;2022-09-12T03:43:01;100259.16;;;11.87;63.68
68656;BME280;55638;51.122;13.606;2022-09-12T03:44:32;100251.03;;;11.87;63.78
68656;BME280;55638;51.122;13.606;2022-09-12T03:46:04;100253.75;;;11.87;63.54
68656;BME280;55638;51.122;13.606;2022-09-12T03:47:36;100260.97;;;11.87;63.56
68656;BME280;55638;51.122;13.606;2022-09-12T03:49:08;100256.44;;;11.87;63.58
68656;BME280;55638;51.122;13.606;2022-09-12T03:50:41;100259.28;;;11.86;63.54
68656;BME280;55638;51.122;13.606;2022-09-12T03:52:12;100257.56;;;11.85;63.68
68656;BME280;55638;51.122;13.606;2022-09-12T03:53:44;100258.59;;;11.84;63.37
68656;BME280;55638;51.122;13.606;2022-09-12T03:55:16;100256.84;;;11.83;63.48
68656;BME280;55638;51.122;13.606;2022-09-12T03:56:48;100265.97;;;11.82;63.62
68656;BME280;55638;51.122;13.606;2022-09-12T03:58:19;100257.00;;;11.81;63.50
68656;BME280;55638;51.122;13.606;2022-09-12T03:59:51;100261.69;;;11.79;63.28
68656;BME280;55638;51.122;13.606;2022-09-12T04:01:23;100258.16;;;11.78;63.15
68656;BME280;55638;51.122;13.606;2022-09-12T04:02:55;100261.97;;;11.76;63.29
68656;BME280;55638;51.122;13.606;2022-09-12T04:04:27;100265.69;;;11.75;63.49
68656;BME280;55638;51.122;13.606;2022-09-12T04:05:59;100261.41;;;11.72;63.31
68656;BME280;55638;51.122;13.606;2022-09-12T04:07:30;100260.69;;;11.70;63.51
68656;BME280;55638;51.122;13.606;2022-09-12T04:09:02;100259.84;;;11.70;63.39
68656;BME280;55638;51.122;13.606;2022-09-12T04:10:34;100260.97;;;11.67;63.08
68656;BME280;55638;51.122;13.606;2022-09-12T04:12:05;100261.84;;;11.68;63.30
68656;BME280;55638;51.122;13.606;2022-09-12T04:13:38;100254.88;;;11.65;63.33
68656;BME280;55638;51.122;13.606;2022-09-12T04:15:10;100257.69;;;11.64;63.32
68656;BME280;55638;51.122;13.606;2022-09-12T04:16:42;100260.41;;;11.64;63.43
68656;BME280;55638;51.122;13.606;2022-09-12T04:18:13;100256.84;;;11.63;63.55
68656;BME280;55638;51.122;13.606;2022-09-12T04:19:45;100262.41;;;11.62;63.53
68656;BME280;55638;51.122;13.606;2022-09-12T04:21:17;100264.28;;;11.61;63.79
68656;BME280;55638;51.122;13.606;2022-09-12T04:22:49;100274.22;;;11.61;63.59
68656;BME280;55638;51.122;13.606;2022-09-12T04:24:21;100271.50;;;11.61;63.59
68656;BME280;55638;51.122;13.606;2022-09-12T04:25:54;100270.81;;;11.59;63.67
68656;BME280;55638;51.122;13.606;2022-09-12T04:27:25;100271.78;;;11.58;63.62
68656;BME280;55638;51.122;13.606;2022-09-12T04:28:57;100268.22;;;11.57;63.82
68656;BME280;55638;51.122;13.606;2022-09-12T04:30:29;100265.66;;;11.55;63.62
68656;BME280;55638;51.122;13.606;2022-09-12T04:32:01;100266.66;;;11.54;63.54
68656;BME280;55638;51.122;13.606;2022-09-12T04:33:34;100272.19;;;11.53;63.88
68656;BME280;55638;51.122;13.606;2022-09-12T04:35:06;100268.63;;;11.52;63.66
68656;BME280;55638;51.122;13.606;2022-09-12T04:36:38;100275.03;;;11.51;63.60
68656;BME280;55638;51.122;13.606;2022-09-12T04:38:10;100267.91;;;11.50;63.62
68656;BME280;55638;51.122;13.606;2022-09-12T04:39:42;100277.03;;;11.49;63.52
68656;BME280;55638;51.122;13.606;2022-09-12T04:41:15;100274.31;;;11.49;63.70
68656;BME280;55638;51.122;13.606;2022-09-12T04:42:47;100273.59;;;11.47;63.78
68656;BME280;55638;51.122;13.606;2022-09-12T04:44:19;100271.78;;;11.48;63.81
68656;BME280;55638;51.122;13.606;2022-09-12T04:45:51;100280.00;;;11.46;63.77
68656;BME280;55638;51.122;13.606;2022-09-12T04:47:23;100272.03;;;11.45;63.82
68656;BME280;55638;51.122;13.606;2022-09-12T04:48:54;100281.97;;;11.44;63.76
68656;BME280;55638;51.122;13.606;2022-09-12T04:50:27;100285.69;;;11.43;63.76
68656;BME280;55638;51.122;13.606;2022-09-12T04:51:59;100281.28;;;11.42;64.02
68656;BME280;55638;51.122;13.606;2022-09-12T04:53:30;100279.56;;;11.41;63.86
68656;BME280;55638;51.122;13.606;2022-09-12T04:55:03;100287.66;;;11.41;64.14
68656;BME280;55638;51.122;13.606;2022-09-12T04:56:38;100287.66;;;11.41;63.91
68656;BME280;55638;51.122;13.606;2022-09-12T04:58:10;100284.97;;;11.41;64.10
68656;BME280;55638;51.122;13.606;2022-09-12T04:59:42;100289.41;;;11.42;64.13
68656;BME280;55638;51.122;13.606;2022-09-12T05:01:20;100286.69;;;11.42;64.07
68656;BME280;55638;51.122;13.606;2022-09-12T05:02:53;100287.53;;;11.43;64.34
68656;BME280;55638;51.122;13.606;2022-09-12T05:04:25;100282.97;;;11.43;64.37
68656;BME280;55638;51.122;13.606;2022-09-12T05:05:56;100287.38;;;11.44;64.33
68656;BME280;55638;51.122;13.606;2022-09-12T05:07:28;100286.41;;;11.45;64.33
68656;BME280;55638;51.122;13.606;2022-09-12T05:09:00;100286.41;;;11.45;64.32
68656;BME280;55638;51.122;13.606;2022-09-12T05:10:32;100282.72;;;11.46;64.46
68656;BME280;55638;51.122;13.606;2022-09-12T05:12:04;100292.53;;;11.47;64.56
68656;BME280;55638;51.122;13.606;2022-09-12T05:13:36;100288.84;;;11.48;64.49
68656;BME280;55638;51.122;13.606;2022-09-12T05:15:08;100285.13;;;11.49;64.36
68656;BME280;55638;51.122;13.606;2022-09-12T05:16:40;100293.09;;;11.51;64.36
68656;BME280;55638;51.122;13.606;2022-09-12T05:18:14;100287.69;;;11.51;64.28
68656;BME280;55638;51.122;13.606;2022-09-12T05:19:46;100286.56;;;11.53;64.30
68656;BME280;55638;51.122;13.606;2022-09-12T05:21:19;100290.13;;;11.54;64.29
68656;BME280;55638;51.122;13.606;2022-09-12T05:22:51;100287.28;;;11.55;64.49
68656;BME280;55638;51.122;13.606;2022-09-12T05:24:22;100290.84;;;11.56;64.41
68656;BME280;55638;51.122;13.606;2022-09-12T05:25:55;100288.91;;;11.58;64.37
68656;BME280;55638;51.122;13.606;2022-09-12T05:27:28;100295.00;;;11.60;64.44
68656;BME280;55638;51.122;13.606;2022-09-12T05:28:59;100300.28;;;11.62;64.50
68656;BME280;55638;51.122;13.606;2022-09-12T05:30:31;100296.56;;;11.63;64.45
68656;BME280;55638;51.122;13.606;2022-09-12T05:32:03;100300.00;;;11.65;64.36
68656;BME280;55638;51.122;13.606;2022-09-12T05:33:35;100294.59;;;11.65;64.45
68656;BME280;55638;51.122;13.606;2022-09-12T05:35:07;100305.13;;;11.68;64.58
68656;BME280;55638;51.122;13.606;2022-09-12T05:36:39;100298.72;;;11.69;64.53
68656;BME280;55638;51.122;13.606;2022-09-12T05:38:10;100303.84;;;11.72;64.39
68656;BME280;55638;51.122;13.606;2022-09-12T05:39:42;100312.69;;;11.74;64.58
68656;BME280;55638;51.122;13.606;2022-09-12T05:41:17;100310.69;;;11.76;64.54
68656;BME280;55638;51.122;13.606;2022-09-12T05:42:54;100311.25;;;11.79;64.80
68656;BME280;55638;51.122;13.606;2022-09-12T05:44:26;100310.13;;;11.82;65.04
68656;BME280;55638;51.122;13.606;2022-09-12T05:46:02;100313.41;;;11.86;64.95
68656;BME280;55638;51.122;13.606;2022-09-12T05:47:34;100313.13;;;11.89;64.85
68656;BME280;55638;51.122;13.606;2022-09-12T05:49:06;100312.69;;;11.93;64.85
68656;BME280;55638;51.122;13.606;2022-09-12T05:50:38;100313.28;;;11.97;64.98
68656;BME280;55638;51.122;13.606;2022-09-12T05:52:10;100309.41;;;11.99;64.84
68656;BME280;55638;51.122;13.606;2022-09-12T05:53:42;100309.84;;;12.05;65.09
68656;BME280;55638;51.122;13.606;2022-09-12T05:55:13;100319.38;;;12.09;65.08
68656;BME280;55638;51.122;13.606;2022-09-12T05:56:45;100311.84;;;12.12;64.94
68656;BME280;55638;51.122;13.606;2022-09-12T05:58:17;100311.41;;;12.17;65.00
68656;BME280;55638;51.122;13.606;2022-09-12T05:59:49;100314.53;;;12.22;64.84
68656;BME280;55638;51.122;13.606;2022-09-12T06:01:21;100320.50;;;12.25;65.03
68656;BME280;55638;51.122;13.606;2022-09-12T06:02:53;100317.41;;;12.30;64.78
68656;BME280;55638;51.122;13.606;2022-09-12T06:04:24;100313.38;;;12.34;64.80
68656;BME280;55638;51.122;13.606;2022-09-12T06:06:00;100318.34;;;12.39;64.92
68656;BME280;55638;51.122;13.606;2022-09-12T06:07:31;100317.94;;;12.43;64.88
68656;BME280;55638;51.122;13.606;2022-09-12T06:09:03;100310.22;;;12.48;65.09
68656;BME280;55638;51.122;13.606;2022-09-12T06:10:35;100311.69;;;12.53;64.89
68656;BME280;55638;51.122;13.606;2022-09-12T06:12:07;100310.38;;;12.57;64.81
68656;BME280;55638;51.122;13.606;2022-09-12T06:13:39;100309.94;;;12.61;64.95
68656;BME280;55638;51.122;13.606;2022-09-12T06:15:11;100307.66;;;12.66;64.68
68656;BME280;55638;51.122;13.606;2022-09-12T06:16:43;100312.63;;;12.71;64.79
68656;BME280;55638;51.122;13.606;2022-09-12T06:18:14;100321.19;;;12.76;64.80
68656;BME280;55638;51.122;13.606;2022-09-12T06:19:46;100314.44;;;12.80;65.13
68656;BME280;55638;51.122;13.606;2022-09-12T06:21:18;100315.84;;;12.84;64.74
68656;BME280;55638;51.122;13.606;2022-09-12T06:22:53;100320.56;;;12.92;64.89
68656;BME280;55638;51.122;13.606;2022-09-12T06:24:26;100317.41;;;12.97;65.01
68656;BME280;55638;51.122;13.606;2022-09-12T06:25:57;100315.78;;;13.04;64.78
68656;BME280;55638;51.122;13.606;2022-09-12T06:27:29;100320.78;;;13.08;64.90
68656;BME280;55638;51.122;13.606;2022-09-12T06:29:01;100326.47;;;13.15;64.87
68656;BME280;55638;51.122;13.606;2022-09-12T06:30:33;100319.72;;;13.19;64.79
68656;BME280;55638;51.122;13.606;2022-09-12T06:32:05;100326.25;;;13.26;64.75
68656;BME280;55638;51.122;13.606;2022-09-12T06:33:38;100323.78;;;13.33;64.91
68656;BME280;55638;51.122;13.606;2022-09-12T06:35:11;100318.78;;;13.38;64.64
68656;BME280;55638;51.122;13.606;2022-09-12T06:36:44;100321.78;;;13.45;64.88
68656;BME280;55638;51.122;13.606;2022-09-12T06:38:15;100325.75;;;13.50;64.36
68656;BME280;55638;51.122;13.606;2022-09-12T06:39:47;100320.56;;;13.57;64.52
68656;BME280;55638;51.122;13.606;2022-09-12T06:41:19;100323.66;;;13.62;64.76
68656;BME280;55638;51.122;13.606;2022-09-12T06:42:51;100325.94;;;13.67;64.66
68656;BME280;55638;51.122;13.606;2022-09-12T06:44:35;100330.59;;;13.74;64.77
68656;BME280;55638;51.122;13.606;2022-09-12T06:46:08;100333.53;;;13.81;64.54
68656;BME280;55638;51.122;13.606;2022-09-12T06:47:39;100327.34;;;13.88;64.65
68656;BME280;55638;51.122;13.606;2022-09-12T06:49:11;100337.56;;;13.95;64.79
68656;BME280;55638;51.122;13.606;2022-09-12T06:50:53;100331.53;;;14.01;64.14
68656;BME280;55638;51.122;13.606;2022-09-12T06:52:25;100332.47;;;14.09;64.53
68656;BME280;55638;51.122;13.606;2022-09-12T06:53:57;100332.69;;;14.16;64.50
68656;BME280;55638;51.122;13.606;2022-09-12T06:55:28;100335.63;;;14.23;64.41
68656;BME280;55638;51.122;13.606;2022-09-12T06:57:00;100339.31;;;14.31;64.52
68656;BME280;55638;51.122;13.606;2022-09-12T06:58:32;100340.41;;;14.39;64.35
68656;BME280;55638;51.122;13.606;2022-09-12T07:00:04;100344.34;;;14.44;64.45
68656;BME280;55638;51.122;13.606;2022-09-12T07:01:36;100338.28;;;14.50;64.05
68656;BME280;55638;51.122;13.606;2022-09-12T07:03:08;100343.94;;;14.57;64.19
68656;BME280;55638;51.122;13.606;2022-09-12T07:04:40;100334.44;;;14.61;64.03
68656;BME280;55638;51.122;13.606;2022-09-12T07:06:12;100343.84;;;14.67;64.04
68656;BME280;55638;51.122;13.606;2022-09-12T07:07:45;100332.66;;;14.70;64.04
68656;BME280;55638;51.122;13.606;2022-09-12T07:09:16;100340.31;;;14.74;63.53
68656;BME280;55638;51.122;13.606;2022-09-12T07:10:48;100337.28;;;14.77;63.23
68656;BME280;55638;51.122;13.606;2022-09-12T07:12:20;100340.72;;;14.79;62.71
68656;BME280;55638;51.122;13.606;2022-09-12T07:13:52;100343.06;;;14.82;63.28
68656;BME280;55638;51.122;13.606;2022-09-12T07:15:24;100339.19;;;14.85;63.29
68656;BME280;55638;51.122;13.606;2022-09-12T07:16:57;100342.75;;;14.86;62.18
68656;BME280;55638;51.122;13.606;2022-09-12T07:18:29;100347.03;;;14.88;62.90
68656;BME280;55638;51.122;13.606;2022-09-12T07:20:01;100343.31;;;14.89;62.88
68656;BME280;55638;51.122;13.606;2022-09-12T07:21:33;100343.13;;;14.91;62.90
68656;BME280;55638;51.122;13.606;2022-09-12T07:23:10;100350.13;;;14.93;63.04
68656;BME280;55638;51.122;13.606;2022-09-12T07:24:42;100347.94;;;14.97;62.99
68656;BME280;55638;51.122;13.606;2022-09-12T07:26:14;100350.34;;;15.00;63.09
68656;BME280;55638;51.122;13.606;2022-09-12T07:27:46;100349.84;;;15.04;63.67
68656;BME280;55638;51.122;13.606;2022-09-12T07:29:21;100350.22;;;15.10;63.82
68656;BME280;55638;51.122;13.606;2022-09-12T07:31:08;100354.22;;;15.15;63.45
68656;BME280;55638;51.122;13.606;2022-09-12T07:32:40;100363.25;;;15.24;63.90
68656;BME280;55638;51.122;13.606;2022-09-12T07:34:11;100351.88;;;15.29;63.63
68656;BME280;55638;51.122;13.606;2022-09-12T07:35:44;100354.81;;;15.35;63.62
68656;BME280;55638;51.122;13.606;2022-09-12T07:37:16;100353.28;;;15.41;63.21
68656;BME280;55638;51.122;13.606;2022-09-12T07:38:52;100351.97;;;15.45;63.06
68656;BME280;55638;51.122;13.606;2022-09-12T07:40:27;100354.19;;;15.49;63.24
68656;BME280;55638;51.122;13.606;2022-09-12T07:41:59;100342.97;;;15.53;62.82
68656;BME280;55638;51.122;13.606;2022-09-12T07:43:31;100347.03;;;15.57;62.63
68656;BME280;55638;51.122;13.606;2022-09-12T07:45:03;100346.06;;;15.58;62.19
68656;BME280;55638;51.122;13.606;2022-09-12T07:46:34;100350.28;;;15.60;62.04
68656;BME280;55638;51.122;13.606;2022-09-12T07:48:06;100344.69;;;15.62;62.38
68656;BME280;55638;51.122;13.606;2022-09-12T07:49:38;100355.25;;;15.65;62.79
68656;BME280;55638;51.122;13.606;2022-09-12T07:51:10;100356.81;;;15.67;63.01
68656;BME280;55638;51.122;13.606;2022-09-12T07:52:42;100352.88;;;15.70;62.68
68656;BME280;55638;51.122;13.606;2022-09-12T07:54:14;100351.69;;;15.72;62.63
68656;BME280;55638;51.122;13.606;2022-09-12T07:55:51;100355.78;;;15.77;62.83
68656;BME280;55638;51.122;13.606;2022-09-12T07:57:23;100352.72;;;15.80;62.47
68656;BME280;55638;51.122;13.606;2022-09-12T07:58:55;100353.09;;;15.85;62.57
68656;BME280;55638;51.122;13.606;2022-09-12T08:00:27;100349.88;;;15.89;62.42
68656;BME280;55638;51.122;13.606;2022-09-12T08:02:08;100355.69;;;15.94;62.30
68656;BME280;55638;51.122;13.606;2022-09-12T08:03:46;100354.19;;;16.00;62.85
68656;BME280;55638;51.122;13.606;2022-09-12T08:05:18;100353.53;;;16.06;62.44
68656;BME280;55638;51.122;13.606;2022-09-12T08:06:51;100355.56;;;16.12;62.90
68656;BME280;55638;51.122;13.606;2022-09-12T08:08:22;100360.19;;;16.20;62.85
68656;BME280;55638;51.122;13.606;2022-09-12T08:09:54;100358.47;;;16.27;62.84
68656;BME280;55638;51.122;13.606;2022-09-12T08:11:26;100354.22;;;16.33;62.56
68656;BME280;55638;51.122;13.606;2022-09-12T08:12:58;100350.81;;;16.39;62.77
68656;BME280;55638;51.122;13.606;2022-09-12T08:14:30;100350.81;;;16.47;62.57
68656;BME280;55638;51.122;13.606;2022-09-12T08:16:03;100351.81;;;16.54;63.30
68656;BME280;55638;51.122;13.606;2022-09-12T08:17:36;100355.59;;;16.61;61.83
68656;BME280;55638;51.122;13.606;2022-09-12T08:19:08;100349.41;;;16.67;62.21
68656;BME280;55638;51.122;13.606;2022-09-12T08:20:39;100351.50;;;16.74;62.02
68656;BME280;55638;51.122;13.606;2022-09-12T08:22:11;100352.50;;;16.81;62.02
68656;BME280;55638;51.122;13.606;2022-09-12T08:23:43;100362.38;;;16.90;61.80
68656;BME280;55638;51.122;13.606;2022-09-12T08:25:15;100358.81;;;16.98;62.30
68656;BME280;55638;51.122;13.606;2022-09-12T08:26:47;100354.34;;;17.05;62.11
68656;BME280;55638;51.122;13.606;2022-09-12T08:28:19;100355.34;;;17.12;61.92
68656;BME280;55638;51.122;13.606;2022-09-12T08:29:50;100352.75;;;17.19;61.45
68656;BME280;55638;51.122;13.606;2022-09-12T08:31:22;100356.50;;;17.26;60.28
68656;BME280;55638;51.122;13.606;2022-09-12T08:32:55;100363.31;;;17.30;57.51
68656;BME280;55638;51.122;13.606;2022-09-12T08:34:26;100364.31;;;17.37;59.56
68656;BME280;55638;51.122;13.606;2022-09-12T08:37:39;100363.41;;;17.45;57.52
68656;BME280;55638;51.122;13.606;2022-09-12T08:39:11;100366.16;;;17.53;60.11
68656;BME280;55638;51.122;13.606;2022-09-12T08:40:49;100363.72;;;17.58;59.42
68656;BME280;55638;51.122;13.606;2022-09-12T08:42:32;100360.28;;;17.64;59.70
68656;BME280;55638;51.122;13.606;2022-09-12T08:46:01;100361.75;;;17.75;59.33
68656;BME280;55638;51.122;13.606;2022-09-12T08:47:37;100362.78;;;17.82;60.08
68656;BME280;55638;51.122;13.606;2022-09-12T08:49:11;100361.66;;;17.91;60.17